sensor_id;sensor_type;location;lat;lon;timestamp;pressure;altitude;pressure_sealevel;temperature;humidity
65718;BME280;52445;52.466;-1.016;2023-02-15T00:01:22;101192.38;;;4.42;76.31
65718;BME280;52445;52.466;-1.016;2023-02-15T00:03:49;101194.00;;;4.40;76.34
65718;BME280;52445;52.466;-1.016;2023-02-15T00:06:17;101190.50;;;4.37;75.91
65718;BME280;52445;52.466;-1.016;2023-02-15T00:08:43;101188.72;;;4.36;76.23
65718;BME280;52445;52.466;-1.016;2023-02-15T00:11:13;101186.91;;;4.34;76.58
65718;BME280;52445;52.466;-1.016;2023-02-15T00:13:40;101181.72;;;4.32;76.30
65718;BME280;52445;52.466;-1.016;2023-02-15T00:16:10;101179.09;;;4.31;76.17
65718;BME280;52445;52.466;-1.016;2023-02-15T00:18:39;101173.91;;;4.29;76.53
65718;BME280;52445;52.466;-1.016;2023-02-15T00:21:08;101174.72;;;4.28;76.42
65718;BME280;52445;52.466;-1.016;2023-02-15T00:23:35;101166.09;;;4.26;76.62
65718;BME280;52445;52.466;-1.016;2023-02-15T00:28:40;101159.81;;;4.19;76.35
65718;BME280;52445;52.466;-1.016;2023-02-15T00:31:10;101163.97;;;4.16;76.77
65718;BME280;52445;52.466;-1.016;2023-02-15T00:33:38;101160.44;;;4.14;76.13
65718;BME280;52445;52.466;-1.016;2023-02-15T00:36:08;101156.13;;;4.13;76.46
65718;BME280;52445;52.466;-1.016;2023-02-15T00:38:36;101143.19;;;4.09;75.86
65718;BME280;52445;52.466;-1.016;2023-02-15T00:41:05;101141.44;;;4.08;76.49
65718;BME280;52445;52.466;-1.016;2023-02-15T00:43:33;101143.03;;;4.06;76.46
65718;BME280;52445;52.466;-1.016;2023-02-15T00:46:00;101131.03;;;4.05;76.63
65718;BME280;52445;52.466;-1.016;2023-02-15T00:48:27;101127.56;;;4.03;76.21
65718;BME280;52445;52.466;-1.016;2023-02-15T00:50:56;101120.66;;;4.02;76.60
65718;BME280;52445;52.466;-1.016;2023-02-15T00:53:25;101118.91;;;4.01;76.44
65718;BME280;52445;52.466;-1.016;2023-02-15T00:55:52;101112.03;;;4.00;76.58
65718;BME280;52445;52.466;-1.016;2023-02-15T00:58:19;101112.03;;;4.00;76.39
65718;BME280;52445;52.466;-1.016;2023-02-15T01:00:47;101101.78;;;4.00;76.54
65718;BME280;52445;52.466;-1.016;2023-02-15T01:03:15;101103.53;;;4.01;76.69
65718;BME280;52445;52.466;-1.016;2023-02-15T01:05:42;101091.53;;;4.00;76.73
65718;BME280;52445;52.466;-1.016;2023-02-15T01:08:09;101094.91;;;3.99;76.79
65718;BME280;52445;52.466;-1.016;2023-02-15T01:10:36;101094.91;;;3.99;76.66
65718;BME280;52445;52.466;-1.016;2023-02-15T01:13:02;101089.78;;;3.99;76.81
65718;BME280;52445;52.466;-1.016;2023-02-15T01:15:29;101081.16;;;3.97;76.88
65718;BME280;52445;52.466;-1.016;2023-02-15T01:17:56;101067.41;;;3.95;76.80
65718;BME280;52445;52.466;-1.016;2023-02-15T01:20:26;101071.59;;;3.93;76.14
65718;BME280;52445;52.466;-1.016;2023-02-15T01:22:53;101065.50;;;3.91;76.64
65718;BME280;52445;52.466;-1.016;2023-02-15T01:25:22;101064.53;;;3.87;76.61
65718;BME280;52445;52.466;-1.016;2023-02-15T01:27:49;101065.28;;;3.84;76.61
65718;BME280;52445;52.466;-1.016;2023-02-15T01:30:16;101064.31;;;3.82;76.29
65718;BME280;52445;52.466;-1.016;2023-02-15T01:32:43;101065.13;;;3.81;76.89
65718;BME280;52445;52.466;-1.016;2023-02-15T01:35:10;101075.38;;;3.81;76.38
65718;BME280;52445;52.466;-1.016;2023-02-15T01:37:37;101066.78;;;3.79;76.27
65718;BME280;52445;52.466;-1.016;2023-02-15T01:40:07;101067.63;;;3.80;76.46
65718;BME280;52445;52.466;-1.016;2023-02-15T01:42:34;101066.78;;;3.79;76.26
65718;BME280;52445;52.466;-1.016;2023-02-15T01:45:03;101056.53;;;3.79;76.95
65718;BME280;52445;52.466;-1.016;2023-02-15T01:47:42;101054.75;;;3.78;76.78
65718;BME280;52445;52.466;-1.016;2023-02-15T01:53:03;101058.13;;;3.77;76.82
65718;BME280;52445;52.466;-1.016;2023-02-15T01:55:37;101051.28;;;3.76;76.64
65718;BME280;52445;52.466;-1.016;2023-02-15T01:58:06;101053.00;;;3.77;76.65
65718;BME280;52445;52.466;-1.016;2023-02-15T02:00:34;101049.63;;;3.78;77.15
65718;BME280;52445;52.466;-1.016;2023-02-15T02:03:01;101048.78;;;3.78;76.68
65718;BME280;52445;52.466;-1.016;2023-02-15T02:05:29;101051.41;;;3.79;77.71
65718;BME280;52445;52.466;-1.016;2023-02-15T02:07:58;101041.94;;;3.78;76.63
65718;BME280;52445;52.466;-1.016;2023-02-15T02:10:26;101040.25;;;3.79;76.66
65718;BME280;52445;52.466;-1.016;2023-02-15T02:12:58;101042.75;;;3.77;76.61
65718;BME280;52445;52.466;-1.016;2023-02-15T02:29:42;101016.13;;;3.52;76.25
65718;BME280;52445;52.466;-1.016;2023-02-15T02:40:20;100994.69;;;3.50;76.82
65718;BME280;52445;52.466;-1.016;2023-02-15T02:42:57;100990.25;;;3.46;77.11
65718;BME280;52445;52.466;-1.016;2023-02-15T02:45:32;100985.94;;;3.45;76.98
65718;BME280;52445;52.466;-1.016;2023-02-15T02:48:06;100986.75;;;3.44;76.52
65718;BME280;52445;52.466;-1.016;2023-02-15T02:50:34;100978.25;;;3.45;76.42
65718;BME280;52445;52.466;-1.016;2023-02-15T02:53:01;100974.88;;;3.46;77.34
65718;BME280;52445;52.466;-1.016;2023-02-15T02:55:34;100974.88;;;3.46;76.53
65718;BME280;52445;52.466;-1.016;2023-02-15T03:06:10;100960.00;;;3.58;77.74
65718;BME280;52445;52.466;-1.016;2023-02-15T03:08:43;100948.72;;;3.53;76.86
65718;BME280;52445;52.466;-1.016;2023-02-15T03:11:11;100951.00;;;3.47;77.34
65718;BME280;52445;52.466;-1.016;2023-02-15T03:13:38;100939.78;;;3.43;76.96
65718;BME280;52445;52.466;-1.016;2023-02-15T03:16:06;100935.41;;;3.41;77.43
65718;BME280;52445;52.466;-1.016;2023-02-15T03:19:03;100917.97;;;3.32;77.68
65718;BME280;52445;52.466;-1.016;2023-02-15T03:21:50;100917.78;;;3.27;77.51
65718;BME280;52445;52.466;-1.016;2023-02-15T03:27:14;100907.84;;;3.14;77.14
65718;BME280;52445;52.466;-1.016;2023-02-15T03:29:51;100906.75;;;3.08;77.16
65718;BME280;52445;52.466;-1.016;2023-02-15T03:32:20;100905.84;;;3.06;77.26
65718;BME280;52445;52.466;-1.016;2023-02-15T03:34:48;100904.88;;;3.04;77.26
65718;BME280;52445;52.466;-1.016;2023-02-15T03:40:07;100898.59;;;2.96;77.40
65718;BME280;52445;52.466;-1.016;2023-02-15T03:43:04;100901.00;;;2.93;77.57
65718;BME280;52445;52.466;-1.016;2023-02-15T03:45:37;100900.91;;;2.90;77.63
65718;BME280;52445;52.466;-1.016;2023-02-15T03:48:05;100897.38;;;2.88;76.33
65718;BME280;52445;52.466;-1.016;2023-02-15T03:50:36;100894.69;;;2.85;77.05
65718;BME280;52445;52.466;-1.016;2023-02-15T03:53:25;100888.50;;;2.79;76.86
65718;BME280;52445;52.466;-1.016;2023-02-15T03:55:54;100892.69;;;2.77;76.52
65718;BME280;52445;52.466;-1.016;2023-02-15T03:58:21;100890.03;;;2.76;76.20
65718;BME280;52445;52.466;-1.016;2023-02-15T04:01:18;100882.97;;;2.70;77.05
65718;BME280;52445;52.466;-1.016;2023-02-15T04:04:15;100883.88;;;2.70;76.28
65718;BME280;52445;52.466;-1.016;2023-02-15T04:06:44;100870.31;;;2.73;77.38
65718;BME280;52445;52.466;-1.016;2023-02-15T04:09:12;100873.03;;;2.76;77.39
65718;BME280;52445;52.466;-1.016;2023-02-15T04:11:59;100870.59;;;2.79;76.94
65718;BME280;52445;52.466;-1.016;2023-02-15T04:14:26;100870.59;;;2.79;77.70
65718;BME280;52445;52.466;-1.016;2023-02-15T04:17:12;100873.31;;;2.82;76.60
65718;BME280;52445;52.466;-1.016;2023-02-15T04:19:39;100868.19;;;2.82;76.64
65718;BME280;52445;52.466;-1.016;2023-02-15T04:22:25;100873.31;;;2.82;77.28
65718;BME280;52445;52.466;-1.016;2023-02-15T04:25:12;100874.22;;;2.85;76.66
65718;BME280;52445;52.466;-1.016;2023-02-15T04:27:43;100859.88;;;2.88;77.26
65718;BME280;52445;52.466;-1.016;2023-02-15T04:30:11;100851.47;;;2.91;77.11
65718;BME280;52445;52.466;-1.016;2023-02-15T04:32:38;100849.03;;;2.94;76.90
65718;BME280;52445;52.466;-1.016;2023-02-15T04:35:05;100832.03;;;2.96;77.61
65718;BME280;52445;52.466;-1.016;2023-02-15T04:37:33;100838.13;;;2.98;77.12
65718;BME280;52445;52.466;-1.016;2023-02-15T04:39:59;100836.47;;;3.00;77.37
65718;BME280;52445;52.466;-1.016;2023-02-15T04:42:26;100833.97;;;3.02;77.32
65718;BME280;52445;52.466;-1.016;2023-02-15T04:44:53;100825.47;;;3.03;78.16
65718;BME280;52445;52.466;-1.016;2023-02-15T04:47:20;100822.19;;;3.05;78.20
65718;BME280;52445;52.466;-1.016;2023-02-15T04:49:47;100812.88;;;3.07;78.08
65718;BME280;52445;52.466;-1.016;2023-02-15T04:52:13;100820.63;;;3.09;77.81
65718;BME280;52445;52.466;-1.016;2023-02-15T04:54:40;100806.25;;;3.13;78.16
65718;BME280;52445;52.466;-1.016;2023-02-15T04:57:07;100816.63;;;3.16;78.10
65718;BME280;52445;52.466;-1.016;2023-02-15T04:59:33;100820.97;;;3.18;77.71
65718;BME280;52445;52.466;-1.016;2023-02-15T05:02:00;100814.19;;;3.19;77.29
65718;BME280;52445;52.466;-1.016;2023-02-15T05:04:27;100813.38;;;3.20;77.00
65718;BME280;52445;52.466;-1.016;2023-02-15T05:06:53;100816.06;;;3.23;77.76
65718;BME280;52445;52.466;-1.016;2023-02-15T05:09:20;100808.38;;;3.23;77.05
65718;BME280;52445;52.466;-1.016;2023-02-15T05:11:46;100807.47;;;3.22;77.96
65718;BME280;52445;52.466;-1.016;2023-02-15T05:14:13;100803.38;;;3.26;77.83
65718;BME280;52445;52.466;-1.016;2023-02-15T05:16:40;100798.25;;;3.26;77.92
65718;BME280;52445;52.466;-1.016;2023-02-15T05:19:06;100799.16;;;3.28;78.33
65718;BME280;52445;52.466;-1.016;2023-02-15T05:21:33;100796.63;;;3.28;77.74
65718;BME280;52445;52.466;-1.016;2023-02-15T05:24:00;100796.63;;;3.28;78.20
65718;BME280;52445;52.466;-1.016;2023-02-15T05:26:26;100788.13;;;3.29;77.25
65718;BME280;52445;52.466;-1.016;2023-02-15T05:29:13;100782.88;;;3.26;77.73
65718;BME280;52445;52.466;-1.016;2023-02-15T05:31:40;100779.50;;;3.27;78.56
65718;BME280;52445;52.466;-1.016;2023-02-15T05:34:07;100770.09;;;3.26;78.52
65718;BME280;52445;52.466;-1.016;2023-02-15T05:36:33;100766.66;;;3.26;78.50
65718;BME280;52445;52.466;-1.016;2023-02-15T05:39:00;100770.91;;;3.25;78.15
65718;BME280;52445;52.466;-1.016;2023-02-15T05:41:27;100781.16;;;3.25;78.34
65718;BME280;52445;52.466;-1.016;2023-02-15T05:43:55;100770.16;;;3.28;77.85
65718;BME280;52445;52.466;-1.016;2023-02-15T05:46:22;100770.97;;;3.27;78.29
65718;BME280;52445;52.466;-1.016;2023-02-15T05:48:48;100774.38;;;3.27;78.68
65718;BME280;52445;52.466;-1.016;2023-02-15T05:51:15;100779.50;;;3.27;78.11
65718;BME280;52445;52.466;-1.016;2023-02-15T05:53:43;100771.59;;;3.21;77.81
65718;BME280;52445;52.466;-1.016;2023-02-15T05:56:11;100778.53;;;3.24;78.80
65718;BME280;52445;52.466;-1.016;2023-02-15T05:58:39;100777.78;;;3.26;78.77
65718;BME280;52445;52.466;-1.016;2023-02-15T06:03:44;100770.81;;;3.69;77.88
65718;BME280;52445;52.466;-1.016;2023-02-15T06:06:11;100765.69;;;3.45;78.12
65718;BME280;52445;52.466;-1.016;2023-02-15T06:08:38;100767.94;;;3.37;78.32
65718;BME280;52445;52.466;-1.016;2023-02-15T06:11:05;100765.25;;;3.34;78.23
65718;BME280;52445;52.466;-1.016;2023-02-15T06:13:32;100767.75;;;3.32;78.67
65718;BME280;52445;52.466;-1.016;2023-02-15T06:16:03;100766.78;;;3.29;78.73
65718;BME280;52445;52.466;-1.016;2023-02-15T06:18:30;100772.66;;;3.26;77.80
65718;BME280;52445;52.466;-1.016;2023-02-15T06:20:57;100777.53;;;3.20;77.84
65718;BME280;52445;52.466;-1.016;2023-02-15T06:23:23;100775.84;;;3.20;78.43
65718;BME280;52445;52.466;-1.016;2023-02-15T06:25:50;100773.97;;;3.16;79.13
65718;BME280;52445;52.466;-1.016;2023-02-15T06:28:17;100774.66;;;3.12;78.46
65718;BME280;52445;52.466;-1.016;2023-02-15T06:30:43;100775.53;;;3.13;78.98
65718;BME280;52445;52.466;-1.016;2023-02-15T06:33:10;100779.59;;;3.07;79.34
65718;BME280;52445;52.466;-1.016;2023-02-15T06:35:36;100780.56;;;3.10;79.00
65718;BME280;52445;52.466;-1.016;2023-02-15T06:38:03;100775.44;;;3.10;78.05
65718;BME280;52445;52.466;-1.016;2023-02-15T06:40:30;100775.44;;;3.10;78.45
65718;BME280;52445;52.466;-1.016;2023-02-15T06:42:56;100785.66;;;3.10;78.77
65718;BME280;52445;52.466;-1.016;2023-02-15T06:45:23;100782.28;;;3.11;78.65
65718;BME280;52445;52.466;-1.016;2023-02-15T06:47:49;100782.28;;;3.11;78.61
65718;BME280;52445;52.466;-1.016;2023-02-15T06:50:16;100784.09;;;3.13;78.48
65718;BME280;52445;52.466;-1.016;2023-02-15T06:52:42;100782.41;;;3.14;78.75
65718;BME280;52445;52.466;-1.016;2023-02-15T06:55:09;100787.53;;;3.14;78.64
65718;BME280;52445;52.466;-1.016;2023-02-15T06:57:35;100794.41;;;3.15;77.79
65718;BME280;52445;52.466;-1.016;2023-02-15T07:00:03;100792.75;;;3.17;78.01
65718;BME280;52445;52.466;-1.016;2023-02-15T07:02:32;100790.19;;;3.17;77.76
65718;BME280;52445;52.466;-1.016;2023-02-15T07:04:59;100791.91;;;3.16;78.38
65718;BME280;52445;52.466;-1.016;2023-02-15T07:07:26;100790.25;;;3.18;78.71
65718;BME280;52445;52.466;-1.016;2023-02-15T07:09:52;100791.13;;;3.19;77.36
65718;BME280;52445;52.466;-1.016;2023-02-15T07:12:19;100795.38;;;3.18;77.31
65718;BME280;52445;52.466;-1.016;2023-02-15T07:15:06;100784.28;;;3.18;78.17
65718;BME280;52445;52.466;-1.016;2023-02-15T07:17:33;100782.50;;;3.17;78.17
65718;BME280;52445;52.466;-1.016;2023-02-15T07:20:04;100788.44;;;3.16;78.14
65718;BME280;52445;52.466;-1.016;2023-02-15T07:22:31;100783.34;;;3.16;77.48
65718;BME280;52445;52.466;-1.016;2023-02-15T07:25:00;100785.06;;;3.17;77.85
65718;BME280;52445;52.466;-1.016;2023-02-15T07:27:27;100784.28;;;3.18;78.37
65718;BME280;52445;52.466;-1.016;2023-02-15T07:29:53;100785.06;;;3.17;77.22
65718;BME280;52445;52.466;-1.016;2023-02-15T07:32:20;100782.50;;;3.17;77.66
65718;BME280;52445;52.466;-1.016;2023-02-15T07:34:47;100784.16;;;3.15;77.37
65718;BME280;52445;52.466;-1.016;2023-02-15T07:37:13;100784.16;;;3.15;76.93
65718;BME280;52445;52.466;-1.016;2023-02-15T07:39:40;100784.16;;;3.15;77.83
65718;BME280;52445;52.466;-1.016;2023-02-15T07:42:06;100779.03;;;3.15;78.22
65718;BME280;52445;52.466;-1.016;2023-02-15T07:44:33;100778.22;;;3.16;77.50
65718;BME280;52445;52.466;-1.016;2023-02-15T07:46:59;100769.78;;;3.18;77.92
65718;BME280;52445;52.466;-1.016;2023-02-15T07:49:26;100767.28;;;3.20;77.25
65718;BME280;52445;52.466;-1.016;2023-02-15T07:51:53;100774.25;;;3.24;78.00
65718;BME280;52445;52.466;-1.016;2023-02-15T07:54:19;100786.28;;;3.25;77.48
65718;BME280;52445;52.466;-1.016;2023-02-15T07:56:46;100782.88;;;3.26;78.31
65718;BME280;52445;52.466;-1.016;2023-02-15T07:59:13;100782.88;;;3.26;77.99
65718;BME280;52445;52.466;-1.016;2023-02-15T08:01:39;100783.81;;;3.28;77.31
65718;BME280;52445;52.466;-1.016;2023-02-15T08:04:07;100778.75;;;3.30;77.67
65718;BME280;52445;52.466;-1.016;2023-02-15T08:06:36;100784.88;;;3.33;77.08
65718;BME280;52445;52.466;-1.016;2023-02-15T08:09:05;100775.63;;;3.37;78.08
65718;BME280;52445;52.466;-1.016;2023-02-15T08:11:35;100769.00;;;3.42;77.49
65718;BME280;52445;52.466;-1.016;2023-02-15T08:16:48;100768.47;;;3.51;78.04
65718;BME280;52445;52.466;-1.016;2023-02-15T08:19:19;100770.38;;;3.57;78.51
65718;BME280;52445;52.466;-1.016;2023-02-15T08:21:49;100763.81;;;3.64;77.96
65718;BME280;52445;52.466;-1.016;2023-02-15T08:24:19;100770.88;;;3.71;78.23
65718;BME280;52445;52.466;-1.016;2023-02-15T08:26:46;100759.13;;;3.76;77.99
65718;BME280;52445;52.466;-1.016;2023-02-15T08:29:15;100755.22;;;3.86;77.67
65718;BME280;52445;52.466;-1.016;2023-02-15T08:31:42;100751.19;;;3.93;77.93
65718;BME280;52445;52.466;-1.016;2023-02-15T08:34:10;100748.22;;;4.06;77.93
65718;BME280;52445;52.466;-1.016;2023-02-15T08:36:37;100746.25;;;4.23;77.63
65718;BME280;52445;52.466;-1.016;2023-02-15T08:39:05;100741.03;;;4.46;77.97
65718;BME280;52445;52.466;-1.016;2023-02-15T08:41:35;100741.09;;;4.74;78.00
65718;BME280;52445;52.466;-1.016;2023-02-15T08:44:05;100732.41;;;4.98;77.30
65718;BME280;52445;52.466;-1.016;2023-02-15T08:46:35;100731.56;;;5.26;77.60
65718;BME280;52445;52.466;-1.016;2023-02-15T08:49:03;100726.50;;;5.59;77.51
65718;BME280;52445;52.466;-1.016;2023-02-15T08:51:33;100724.03;;;5.94;76.18
65718;BME280;52445;52.466;-1.016;2023-02-15T08:54:03;100716.25;;;6.57;76.86
65718;BME280;52445;52.466;-1.016;2023-02-15T08:56:33;100712.03;;;7.38;76.79
65718;BME280;52445;52.466;-1.016;2023-02-15T08:59:00;100720.72;;;8.32;75.30
65718;BME280;52445;52.466;-1.016;2023-02-15T09:01:29;100717.78;;;9.20;73.66
65718;BME280;52445;52.466;-1.016;2023-02-15T09:03:58;100715.22;;;9.96;71.58
65718;BME280;52445;52.466;-1.016;2023-02-15T09:06:26;100723.66;;;10.65;70.74
65718;BME280;52445;52.466;-1.016;2023-02-15T09:08:54;100721.50;;;11.30;70.43
65718;BME280;52445;52.466;-1.016;2023-02-15T09:11:23;100720.84;;;11.95;68.67
65718;BME280;52445;52.466;-1.016;2023-02-15T09:13:53;100732.22;;;12.58;66.95
65718;BME280;52445;52.466;-1.016;2023-02-15T09:16:20;100726.09;;;13.00;65.12
65718;BME280;52445;52.466;-1.016;2023-02-15T09:18:48;100716.44;;;13.46;65.79
65718;BME280;52445;52.466;-1.016;2023-02-15T09:21:17;100721.53;;;13.79;63.71
65718;BME280;52445;52.466;-1.016;2023-02-15T09:23:45;100729.06;;;14.19;63.03
65718;BME280;52445;52.466;-1.016;2023-02-15T09:26:15;100721.09;;;14.46;62.87
65718;BME280;52445;52.466;-1.016;2023-02-15T09:28:43;100714.72;;;14.76;62.35
65718;BME280;52445;52.466;-1.016;2023-02-15T09:33:50;100723.69;;;15.38;59.90
65718;BME280;52445;52.466;-1.016;2023-02-15T09:38:58;100717.81;;;15.88;59.38
65718;BME280;52445;52.466;-1.016;2023-02-15T09:41:43;100715.66;;;16.18;57.57
65718;BME280;52445;52.466;-1.016;2023-02-15T10:17:27;100688.53;;;18.77;49.35
65718;BME280;52445;52.466;-1.016;2023-02-15T10:29:02;100684.59;;;18.94;49.34
65718;BME280;52445;52.466;-1.016;2023-02-15T10:31:49;100689.97;;;18.89;49.19
65718;BME280;52445;52.466;-1.016;2023-02-15T10:34:23;100679.72;;;18.80;49.22
65718;BME280;52445;52.466;-1.016;2023-02-15T10:40:21;100663.59;;;18.62;48.88
65718;BME280;52445;52.466;-1.016;2023-02-15T10:45:36;100681.06;;;18.61;48.69
65718;BME280;52445;52.466;-1.016;2023-02-15T10:51:22;100671.53;;;18.92;49.27
65718;BME280;52445;52.466;-1.016;2023-02-15T10:54:08;100675.16;;;18.88;48.91
65718;BME280;52445;52.466;-1.016;2023-02-15T11:08:16;100669.31;;;17.67;49.69
65718;BME280;52445;52.466;-1.016;2023-02-15T11:10:50;100685.19;;;17.18;50.28
65718;BME280;52445;52.466;-1.016;2023-02-15T11:13:20;100688.47;;;16.81;50.65
65718;BME280;52445;52.466;-1.016;2023-02-15T11:16:00;100697.81;;;16.45;51.20
65718;BME280;52445;52.466;-1.016;2023-02-15T11:23:44;100693.13;;;16.11;52.36
65718;BME280;52445;52.466;-1.016;2023-02-15T11:26:15;100695.19;;;15.87;53.47
65718;BME280;52445;52.466;-1.016;2023-02-15T11:28:49;100690.16;;;15.75;53.67
65718;BME280;52445;52.466;-1.016;2023-02-15T11:31:22;100681.59;;;15.63;54.04
65718;BME280;52445;52.466;-1.016;2023-02-15T11:33:53;100690.59;;;15.39;54.01
65718;BME280;52445;52.466;-1.016;2023-02-15T11:36:26;100684.78;;;15.16;54.96
65718;BME280;52445;52.466;-1.016;2023-02-15T11:38:59;100678.84;;;15.02;54.73
65718;BME280;52445;52.466;-1.016;2023-02-15T11:41:29;100675.47;;;14.94;55.16
65718;BME280;52445;52.466;-1.016;2023-02-15T11:44:04;100672.06;;;14.88;55.64
65718;BME280;52445;52.466;-1.016;2023-02-15T11:46:32;100666.94;;;14.76;56.01
65718;BME280;52445;52.466;-1.016;2023-02-15T11:48:59;100660.91;;;14.71;56.30
65718;BME280;52445;52.466;-1.016;2023-02-15T11:51:27;100661.88;;;14.60;56.57
65718;BME280;52445;52.466;-1.016;2023-02-15T11:53:55;100661.16;;;14.44;56.67
65718;BME280;52445;52.466;-1.016;2023-02-15T11:56:24;100656.94;;;14.29;56.71
65718;BME280;52445;52.466;-1.016;2023-02-15T12:04:22;100645.88;;;14.00;58.30
65718;BME280;52445;52.466;-1.016;2023-02-15T12:06:55;100638.06;;;14.00;58.04
65718;BME280;52445;52.466;-1.016;2023-02-15T12:12:24;100640.75;;;13.88;58.35
65718;BME280;52445;52.466;-1.016;2023-02-15T12:14:53;100640.78;;;13.85;58.62
65718;BME280;52445;52.466;-1.016;2023-02-15T12:17:23;100639.91;;;13.81;58.15
65718;BME280;52445;52.466;-1.016;2023-02-15T12:19:52;100639.94;;;13.78;58.15
65718;BME280;52445;52.466;-1.016;2023-02-15T12:25:01;100622.56;;;13.86;58.87
65718;BME280;52445;52.466;-1.016;2023-02-15T12:27:30;100633.81;;;13.87;59.02
65718;BME280;52445;52.466;-1.016;2023-02-15T12:30:01;100631.19;;;13.88;58.50
65718;BME280;52445;52.466;-1.016;2023-02-15T12:32:34;100627.81;;;13.77;59.28
65718;BME280;52445;52.466;-1.016;2023-02-15T12:35:09;100627.81;;;13.77;59.53
65718;BME280;52445;52.466;-1.016;2023-02-15T12:37:52;100633.03;;;13.74;60.15
65718;BME280;52445;52.466;-1.016;2023-02-15T12:40:26;100629.56;;;13.75;60.14
65718;BME280;52445;52.466;-1.016;2023-02-15T12:42:57;100633.03;;;13.74;60.04
65718;BME280;52445;52.466;-1.016;2023-02-15T12:48:19;100638.31;;;13.65;59.47
65718;BME280;52445;52.466;-1.016;2023-02-15T12:50:48;100633.06;;;13.71;59.87
65718;BME280;52445;52.466;-1.016;2023-02-15T12:53:31;100631.31;;;13.73;59.79
65718;BME280;52445;52.466;-1.016;2023-02-15T12:56:01;100621.75;;;13.77;60.24
65718;BME280;52445;52.466;-1.016;2023-02-15T12:58:30;100620.81;;;13.82;60.83
65718;BME280;52445;52.466;-1.016;2023-02-15T13:01:04;100617.38;;;13.82;60.63
65718;BME280;52445;52.466;-1.016;2023-02-15T13:04:05;100613.00;;;13.84;60.85
65718;BME280;52445;52.466;-1.016;2023-02-15T13:06:35;100613.84;;;13.91;60.63
65718;BME280;52445;52.466;-1.016;2023-02-15T13:09:15;100593.84;;;13.91;59.89
65718;BME280;52445;52.466;-1.016;2023-02-15T13:11:44;100603.38;;;13.95;60.23
65718;BME280;52445;52.466;-1.016;2023-02-15T13:14:24;100598.16;;;13.94;60.24
65718;BME280;52445;52.466;-1.016;2023-02-15T13:16:56;100600.75;;;13.97;60.19
65718;BME280;52445;52.466;-1.016;2023-02-15T13:22:10;100602.50;;;13.96;60.34
65718;BME280;52445;52.466;-1.016;2023-02-15T13:24:41;100599.00;;;13.99;60.04
65718;BME280;52445;52.466;-1.016;2023-02-15T13:27:16;100592.81;;;14.09;59.93
65718;BME280;52445;52.466;-1.016;2023-02-15T13:29:48;100589.28;;;14.17;59.96
65718;BME280;52445;52.466;-1.016;2023-02-15T13:35:01;100582.28;;;14.25;59.48
65718;BME280;52445;52.466;-1.016;2023-02-15T13:38:11;100578.03;;;14.18;59.72
65718;BME280;52445;52.466;-1.016;2023-02-15T13:40:48;100573.72;;;14.13;59.88
65718;BME280;52445;52.466;-1.016;2023-02-15T14:01:08;100567.00;;;13.84;60.86
65718;BME280;52445;52.466;-1.016;2023-02-15T14:17:28;100565.41;;;13.68;61.08
65718;BME280;52445;52.466;-1.016;2023-02-15T14:20:02;100563.63;;;13.70;60.67
65718;BME280;52445;52.466;-1.016;2023-02-15T14:22:41;100563.63;;;13.70;60.96
65718;BME280;52445;52.466;-1.016;2023-02-15T14:28:22;100562.63;;;13.88;61.01
65718;BME280;52445;52.466;-1.016;2023-02-15T14:30:54;100560.13;;;13.74;61.86
65718;BME280;52445;52.466;-1.016;2023-02-15T14:33:31;100562.81;;;13.68;61.45
65718;BME280;52445;52.466;-1.016;2023-02-15T14:36:02;100564.53;;;13.66;61.71
65718;BME280;52445;52.466;-1.016;2023-02-15T14:38:59;100560.28;;;13.55;62.47
65718;BME280;52445;52.466;-1.016;2023-02-15T14:41:43;100568.94;;;13.54;62.20
65718;BME280;52445;52.466;-1.016;2023-02-15T14:47:00;100568.97;;;13.51;61.74
65718;BME280;52445;52.466;-1.016;2023-02-15T14:49:33;100573.31;;;13.51;62.40
65718;BME280;52445;52.466;-1.016;2023-02-15T15:07:57;100552.50;;;13.54;63.63
65718;BME280;52445;52.466;-1.016;2023-02-15T15:13:38;100555.16;;;13.36;62.98
65718;BME280;52445;52.466;-1.016;2023-02-15T15:19:04;100556.91;;;13.31;63.08
65718;BME280;52445;52.466;-1.016;2023-02-15T15:50:12;100577.09;;;12.79;65.05
65718;BME280;52445;52.466;-1.016;2023-02-15T15:52:41;100578.81;;;12.80;64.40
65718;BME280;52445;52.466;-1.016;2023-02-15T15:55:17;100577.97;;;12.75;64.93
65718;BME280;52445;52.466;-1.016;2023-02-15T15:57:46;100581.47;;;12.74;65.24
65718;BME280;52445;52.466;-1.016;2023-02-15T16:00:40;100579.75;;;12.65;64.87
65718;BME280;52445;52.466;-1.016;2023-02-15T16:03:21;100574.56;;;12.64;65.30
65718;BME280;52445;52.466;-1.016;2023-02-15T16:05:48;100570.22;;;12.64;65.43
65718;BME280;52445;52.466;-1.016;2023-02-15T16:08:38;100575.44;;;12.56;65.70
65718;BME280;52445;52.466;-1.016;2023-02-15T16:11:19;100582.38;;;12.54;66.51
65718;BME280;52445;52.466;-1.016;2023-02-15T16:13:47;100580.63;;;12.55;66.50
65718;BME280;52445;52.466;-1.016;2023-02-15T16:16:20;100583.22;;;12.50;66.29
65718;BME280;52445;52.466;-1.016;2023-02-15T16:18:48;100579.78;;;12.51;66.58
65718;BME280;52445;52.466;-1.016;2023-02-15T16:21:19;100573.72;;;12.51;66.30
65718;BME280;52445;52.466;-1.016;2023-02-15T16:29:25;100579.69;;;12.84;66.68
65718;BME280;52445;52.466;-1.016;2023-02-15T16:32:02;100567.63;;;12.56;66.82
65718;BME280;52445;52.466;-1.016;2023-02-15T16:34:29;100573.72;;;12.52;66.72
65718;BME280;52445;52.466;-1.016;2023-02-15T16:37:20;100574.59;;;12.42;67.44
65718;BME280;52445;52.466;-1.016;2023-02-15T16:39:50;100577.19;;;12.42;66.29
65718;BME280;52445;52.466;-1.016;2023-02-15T16:42:17;100577.22;;;12.39;66.34
65718;BME280;52445;52.466;-1.016;2023-02-15T16:44:45;100579.81;;;12.36;67.53
65718;BME280;52445;52.466;-1.016;2023-02-15T16:47:19;100569.44;;;12.32;66.90
65718;BME280;52445;52.466;-1.016;2023-02-15T16:49:48;100576.34;;;12.30;67.91
65718;BME280;52445;52.466;-1.016;2023-02-15T16:52:19;100578.09;;;12.10;67.19
65718;BME280;52445;52.466;-1.016;2023-02-15T16:54:51;100575.47;;;12.19;67.82
65718;BME280;52445;52.466;-1.016;2023-02-15T16:57:22;100578.97;;;12.18;68.09